createdAt,value
2018-05-13T00:00:47.309Z,19.00
2018-05-13T00:02:40.223Z,19.02
2018-05-13T00:03:40.261Z,18.98
2018-05-13T00:05:33.177Z,18.98
2018-05-13T00:06:33.182Z,19.04
2018-05-13T00:08:26.093Z,19.02
2018-05-13T00:09:26.124Z,19.00
2018-05-13T00:11:19.049Z,18.99
2018-05-13T00:12:19.047Z,18.94
2018-05-13T00:14:11.959Z,18.92
2018-05-13T00:15:11.980Z,18.99
2018-05-13T00:17:04.915Z,18.94
2018-05-13T00:18:04.925Z,19.07
2018-05-13T00:19:57.862Z,19.07
2018-05-13T00:20:57.861Z,19.11
2018-05-13T00:22:50.783Z,19.11
2018-05-13T00:23:50.796Z,19.07
2018-05-13T00:25:43.740Z,19.07
2018-05-13T00:26:43.734Z,18.95
2018-05-13T00:28:36.649Z,18.91
2018-05-13T00:29:36.662Z,18.90
2018-05-13T00:31:29.596Z,18.82
2018-05-13T00:32:29.600Z,18.91
2018-05-13T00:34:22.509Z,18.81
2018-05-13T00:35:22.540Z,18.82
2018-05-13T00:37:15.465Z,18.94
2018-05-13T00:38:15.464Z,18.85
2018-05-13T00:40:08.395Z,18.78
2018-05-13T00:41:08.398Z,18.78
2018-05-13T00:43:01.310Z,18.81
2018-05-13T00:44:01.333Z,18.76
2018-05-13T00:45:54.268Z,18.67
2018-05-13T00:46:54.264Z,18.69
2018-05-13T00:48:47.173Z,18.69
2018-05-13T00:49:47.195Z,18.57
2018-05-13T00:51:40.146Z,18.63
2018-05-13T00:52:40.144Z,18.52
2018-05-13T00:54:33.044Z,18.54
2018-05-13T00:55:33.071Z,18.57
2018-05-13T00:57:25.997Z,18.70
2018-05-13T00:58:25.998Z,18.57
2018-05-13T01:00:18.930Z,18.48
2018-05-13T01:01:18.938Z,18.50
2018-05-13T01:03:11.841Z,18.35
2018-05-13T01:04:11.863Z,18.39
2018-05-13T01:06:04.798Z,18.36
2018-05-13T01:07:04.795Z,18.30
2018-05-13T01:08:57.705Z,18.32
2018-05-13T01:09:57.728Z,18.30
2018-05-13T01:11:50.659Z,18.27
2018-05-13T01:12:50.700Z,18.37
2018-05-13T01:14:43.570Z,18.47
2018-05-13T01:15:43.592Z,18.39
2018-05-13T01:17:36.523Z,18.42
2018-05-13T01:18:36.591Z,18.39
2018-05-13T01:20:29.471Z,18.37
2018-05-13T01:21:29.458Z,18.41
2018-05-13T01:23:22.383Z,18.37
2018-05-13T01:24:22.401Z,18.35
2018-05-13T01:26:15.329Z,18.42
2018-05-13T01:27:15.328Z,18.30
2018-05-13T01:29:08.240Z,18.35
2018-05-13T01:30:08.262Z,18.39
2018-05-13T01:32:01.192Z,18.44
2018-05-13T01:33:01.206Z,18.44
2018-05-13T01:34:54.105Z,18.26
2018-05-13T01:35:54.128Z,18.36
2018-05-13T01:37:47.060Z,18.29
2018-05-13T01:38:47.062Z,18.33
2018-05-13T01:40:39.993Z,18.36
2018-05-13T01:41:39.995Z,18.30
2018-05-13T01:43:32.902Z,18.29
2018-05-13T01:44:32.925Z,18.29
2018-05-13T01:46:25.860Z,18.36
2018-05-13T01:47:25.859Z,18.25
2018-05-13T01:49:18.774Z,18.33
2018-05-13T01:50:18.801Z,18.18
2018-05-13T01:52:11.752Z,18.29
2018-05-13T01:53:11.728Z,18.25
2018-05-13T01:55:04.639Z,18.26
2018-05-13T01:56:04.663Z,18.21
2018-05-13T01:57:57.594Z,18.23
2018-05-13T01:58:57.595Z,18.20
2018-05-13T02:00:50.538Z,18.25
2018-05-13T02:01:50.538Z,18.20
2018-05-13T02:03:43.439Z,18.25
2018-05-13T02:04:43.460Z,18.20
2018-05-13T02:06:36.392Z,18.26
2018-05-13T02:07:36.390Z,18.25
2018-05-13T02:09:29.302Z,18.33
2018-05-13T02:10:29.332Z,18.25
2018-05-13T02:12:22.257Z,18.26
2018-05-13T02:13:22.254Z,18.30
2018-05-13T02:15:15.167Z,18.23
2018-05-13T02:16:15.195Z,18.15
2018-05-13T02:18:08.117Z,18.26
2018-05-13T02:19:08.116Z,18.21
2018-05-13T02:21:01.028Z,18.25
2018-05-13T02:22:01.053Z,18.15
2018-05-13T02:23:53.981Z,18.21
2018-05-13T02:24:53.984Z,18.14
2018-05-13T02:26:46.928Z,18.12
2018-05-13T02:27:46.913Z,18.18
2018-05-13T02:29:39.823Z,18.25
2018-05-13T02:30:39.847Z,18.23
2018-05-13T02:32:32.777Z,18.26
2018-05-13T02:33:32.778Z,18.15
2018-05-13T02:35:25.690Z,18.23
2018-05-13T02:36:25.714Z,18.14
2018-05-13T02:38:18.641Z,18.10
2018-05-13T02:39:18.642Z,18.10
2018-05-13T02:41:11.552Z,17.99
2018-05-13T02:42:11.576Z,18.02
2018-05-13T02:44:04.507Z,17.95
2018-05-13T02:45:04.520Z,18.03
2018-05-13T02:46:57.440Z,18.08
2018-05-13T02:47:57.442Z,17.99
2018-05-13T02:49:50.422Z,18.05
2018-05-13T02:50:50.375Z,18.18
2018-05-13T02:52:43.304Z,18.26
2018-05-13T02:53:43.306Z,18.25
2018-05-13T02:55:36.214Z,18.26
2018-05-13T02:56:36.239Z,18.12
2018-05-13T02:58:29.170Z,18.17
2018-05-13T02:59:29.178Z,18.14
2018-05-13T03:01:22.081Z,18.20
2018-05-13T03:02:22.103Z,18.26
2018-05-13T03:04:15.036Z,18.29
2018-05-13T03:05:15.035Z,18.26
2018-05-13T03:07:07.965Z,18.23
2018-05-13T03:08:07.966Z,18.15
2018-05-13T03:10:00.874Z,18.08
2018-05-13T03:11:00.898Z,18.05
2018-05-13T03:12:53.828Z,18.08
2018-05-13T03:13:53.835Z,18.14
2018-05-13T03:15:46.741Z,18.10
2018-05-13T03:16:46.763Z,18.08
2018-05-13T03:18:39.695Z,18.14
2018-05-13T03:19:39.701Z,18.03
2018-05-13T03:21:32.606Z,18.08
2018-05-13T03:22:32.637Z,18.02
2018-05-13T03:24:25.572Z,18.03
2018-05-13T03:25:25.574Z,18.08
2018-05-13T03:27:18.490Z,18.10
2018-05-13T03:28:18.493Z,18.12
2018-05-13T03:30:11.413Z,18.15
2018-05-13T03:31:11.425Z,18.29
2018-05-13T03:33:04.367Z,18.21
2018-05-13T03:34:04.356Z,18.27
2018-05-13T03:35:57.270Z,18.25
2018-05-13T03:36:57.288Z,18.27
2018-05-13T03:38:50.232Z,18.29
2018-05-13T03:39:50.231Z,18.39
2018-05-13T03:41:43.153Z,18.32
2018-05-13T03:42:43.162Z,18.21
2018-05-13T03:44:36.108Z,18.30
2018-05-13T03:45:36.098Z,18.33
2018-05-13T03:47:29.031Z,18.32
2018-05-13T03:48:29.032Z,18.42
2018-05-13T03:50:21.941Z,18.44
2018-05-13T03:51:21.965Z,18.39
2018-05-13T03:53:14.899Z,18.45
2018-05-13T03:54:14.905Z,18.50
2018-05-13T03:56:07.810Z,18.54
2018-05-13T03:57:07.831Z,18.62
2018-05-13T03:59:00.762Z,18.72
2018-05-13T04:00:00.765Z,18.76
2018-05-13T04:01:53.674Z,18.82
2018-05-13T04:02:53.695Z,18.84
2018-05-13T04:04:46.637Z,18.94
2018-05-13T04:05:46.698Z,19.10
2018-05-13T04:07:39.571Z,19.02
2018-05-13T04:08:39.561Z,19.21
2018-05-13T04:10:32.472Z,19.23
2018-05-13T04:11:32.495Z,19.28
2018-05-13T04:13:29.639Z,19.29
2018-05-13T04:14:25.429Z,19.22
2018-05-13T04:16:18.342Z,19.13
2018-05-13T04:17:18.365Z,19.14
2018-05-13T04:19:11.295Z,19.10
2018-05-13T04:20:11.298Z,19.02
2018-05-13T04:22:04.209Z,18.98
2018-05-13T04:23:04.232Z,18.95
2018-05-13T04:24:57.163Z,18.99
2018-05-13T04:25:57.165Z,19.06
2018-05-13T04:27:50.165Z,18.92
2018-05-13T04:28:50.116Z,18.87
2018-05-13T04:30:43.017Z,18.72
2018-05-13T04:31:43.052Z,18.66
2018-05-13T04:33:35.973Z,18.72
2018-05-13T04:34:35.982Z,18.67
2018-05-13T04:36:28.886Z,18.55
2018-05-13T04:37:28.907Z,18.51
2018-05-13T04:39:21.849Z,18.67
2018-05-13T04:40:21.842Z,18.66
2018-05-13T04:42:14.757Z,18.76
2018-05-13T04:43:14.779Z,18.72
2018-05-13T04:45:07.708Z,18.75
2018-05-13T04:46:07.711Z,18.88
2018-05-13T04:48:00.660Z,18.95
2018-05-13T04:49:00.655Z,18.88
2018-05-13T04:50:53.562Z,18.87
2018-05-13T04:51:53.582Z,19.00
2018-05-13T04:53:46.515Z,19.26
2018-05-13T04:54:46.517Z,19.31
2018-05-13T04:56:39.430Z,19.50
2018-05-13T04:57:39.452Z,19.63
2018-05-13T04:59:32.384Z,19.83
2018-05-13T05:00:32.394Z,20.08
2018-05-13T05:02:25.313Z,20.24
2018-05-13T05:03:25.336Z,20.32
2018-05-13T05:05:18.260Z,20.38
2018-05-13T05:06:18.263Z,20.43
2018-05-13T05:08:11.196Z,20.69
2018-05-13T05:09:11.199Z,20.72
2018-05-13T05:11:04.112Z,20.92
2018-05-13T05:12:04.137Z,20.99
2018-05-13T05:13:57.088Z,21.07
2018-05-13T05:14:57.079Z,21.22
2018-05-13T05:16:49.998Z,21.42
2018-05-13T05:17:50.030Z,21.56
2018-05-13T05:19:42.959Z,21.69
2018-05-13T05:20:42.969Z,21.77
2018-05-13T05:22:35.880Z,21.77
2018-05-13T05:23:35.910Z,21.84
2018-05-13T05:25:28.841Z,21.96
2018-05-13T05:26:28.859Z,21.84
2018-05-13T05:28:21.782Z,22.00
2018-05-13T05:29:21.787Z,22.03
2018-05-13T05:31:14.703Z,21.98
2018-05-13T05:32:14.733Z,21.96
2018-05-13T05:34:07.667Z,21.80
2018-05-13T05:35:07.675Z,21.80
2018-05-13T05:37:00.591Z,21.74
2018-05-13T05:38:00.616Z,21.69
2018-05-13T05:39:53.550Z,21.72
2018-05-13T05:40:53.559Z,21.80
2018-05-13T05:42:46.471Z,21.67
2018-05-13T05:43:46.502Z,21.72
2018-05-13T05:45:39.438Z,21.99
2018-05-13T05:46:39.444Z,22.12
2018-05-13T05:48:32.386Z,22.21
2018-05-13T05:49:32.388Z,22.30
2018-05-13T05:51:25.305Z,22.83
2018-05-13T05:52:25.335Z,23.09
2018-05-13T05:54:18.283Z,23.55
2018-05-13T05:55:18.280Z,23.66
2018-05-13T05:57:11.208Z,23.95
2018-05-13T05:58:11.233Z,24.24
2018-05-13T06:00:04.171Z,24.46
2018-05-13T06:01:04.178Z,24.64
2018-05-13T06:02:57.098Z,24.73
2018-05-13T06:03:57.128Z,24.69
2018-05-13T06:05:50.071Z,24.50
2018-05-13T06:06:50.080Z,24.55
2018-05-13T06:08:43.028Z,24.71
2018-05-13T06:09:43.034Z,24.91
2018-05-13T06:11:35.958Z,25.30
2018-05-13T06:12:35.988Z,25.40
2018-05-13T06:14:28.934Z,25.50
2018-05-13T06:15:28.944Z,25.46
2018-05-13T06:17:21.865Z,25.51
2018-05-13T06:18:21.896Z,25.58
2018-05-13T06:20:14.840Z,25.08
2018-05-13T06:21:14.849Z,24.91
2018-05-13T06:23:07.778Z,24.57
2018-05-13T06:24:07.806Z,24.37
2018-05-13T06:26:00.750Z,24.53
2018-05-13T06:27:00.761Z,24.58
2018-05-13T06:28:53.710Z,24.85
2018-05-13T06:29:53.717Z,24.98
2018-05-13T06:31:46.659Z,25.28
2018-05-13T06:32:46.675Z,25.36
2018-05-13T06:34:39.632Z,25.51
2018-05-13T06:35:39.631Z,25.46
2018-05-13T06:37:32.557Z,25.36
2018-05-13T06:38:32.588Z,25.33
2018-05-13T06:40:25.535Z,25.52
2018-05-13T06:41:25.543Z,25.70
2018-05-13T06:43:18.467Z,25.83
2018-05-13T06:44:18.498Z,25.85
2018-05-13T06:46:11.445Z,25.97
2018-05-13T06:47:11.456Z,25.98
2018-05-13T06:49:04.403Z,25.97
2018-05-13T06:50:04.415Z,25.80
2018-05-13T06:51:57.342Z,25.60
2018-05-13T06:52:57.374Z,25.47
2018-05-13T06:54:50.326Z,25.38
2018-05-13T06:55:50.332Z,25.32
2018-05-13T06:57:43.264Z,25.39
2018-05-13T06:58:43.292Z,25.46
2018-05-13T07:00:36.308Z,25.76
2018-05-13T07:01:36.253Z,25.85
2018-05-13T07:03:29.185Z,25.97
2018-05-13T07:04:29.215Z,25.94
2018-05-13T07:06:22.271Z,26.07
2018-05-13T07:07:22.177Z,26.10
2018-05-13T07:09:15.123Z,26.13
2018-05-13T07:10:15.737Z,26.13
2018-05-13T07:12:08.065Z,25.65
2018-05-13T07:13:08.126Z,25.76
2018-05-13T07:15:01.044Z,25.55
2018-05-13T07:16:01.084Z,25.38
2018-05-13T07:17:53.979Z,25.14
2018-05-13T07:18:54.012Z,25.10
2018-05-13T07:20:46.961Z,25.18
2018-05-13T07:21:46.968Z,25.20
2018-05-13T07:23:39.891Z,25.00
2018-05-13T07:24:39.921Z,24.88
2018-05-13T07:26:32.865Z,24.80
2018-05-13T07:27:32.874Z,24.87
2018-05-13T07:29:25.858Z,24.76
2018-05-13T07:30:25.828Z,24.76
2018-05-13T07:32:18.752Z,24.77
2018-05-13T07:33:18.784Z,24.68
2018-05-13T07:35:11.727Z,24.71
2018-05-13T07:36:11.733Z,24.76
2018-05-13T07:38:04.653Z,24.77
2018-05-13T07:39:04.684Z,24.81
2018-05-13T07:40:57.625Z,24.67
2018-05-13T07:41:57.633Z,24.68
2018-05-13T07:43:50.558Z,24.80
2018-05-13T07:44:50.585Z,24.80
2018-05-13T07:46:43.528Z,24.81
2018-05-13T07:47:43.536Z,24.88
2018-05-13T07:49:36.477Z,24.90
2018-05-13T07:50:36.487Z,25.03
2018-05-13T07:52:29.407Z,24.87
2018-05-13T07:53:29.443Z,24.90
2018-05-13T07:55:22.377Z,24.95
2018-05-13T07:56:22.386Z,25.05
2018-05-13T07:58:15.309Z,25.09
2018-05-13T07:59:15.338Z,25.02
2018-05-13T08:01:08.287Z,24.93
2018-05-13T08:02:08.292Z,24.99
2018-05-13T08:04:01.216Z,25.03
2018-05-13T08:05:01.246Z,25.08
2018-05-13T08:06:54.193Z,25.25
2018-05-13T08:07:54.196Z,25.36
2018-05-13T08:09:47.143Z,25.36
2018-05-13T08:10:47.148Z,25.39
2018-05-13T08:12:40.067Z,25.32
2018-05-13T08:13:40.097Z,25.32
2018-05-13T08:15:33.063Z,25.38
2018-05-13T08:16:33.051Z,25.55
2018-05-13T08:18:25.991Z,25.67
2018-05-13T08:19:26.004Z,25.80
2018-05-13T08:21:19.152Z,26.05
2018-05-13T08:22:19.160Z,26.12
2018-05-13T08:24:12.089Z,26.09
2018-05-13T08:25:12.118Z,26.20
2018-05-13T08:27:05.061Z,26.39
2018-05-13T08:28:05.074Z,26.51
2018-05-13T08:29:58.020Z,26.60
2018-05-13T08:30:58.021Z,26.69
2018-05-13T08:32:50.948Z,26.80
2018-05-13T08:33:50.975Z,26.84
2018-05-13T08:35:43.926Z,26.92
2018-05-13T08:36:43.930Z,26.82
2018-05-13T08:38:36.854Z,26.84
2018-05-13T08:39:36.884Z,26.84
2018-05-13T08:41:29.831Z,26.81
2018-05-13T08:42:29.838Z,26.91
2018-05-13T08:44:22.763Z,27.09
2018-05-13T08:45:22.792Z,27.21
2018-05-13T08:47:15.745Z,27.41
2018-05-13T08:48:15.779Z,27.40
2018-05-13T08:50:08.690Z,27.50
2018-05-13T08:51:08.701Z,27.60
2018-05-13T08:53:01.624Z,27.70
2018-05-13T08:54:01.734Z,27.81
2018-05-13T08:55:54.598Z,27.70
2018-05-13T08:56:54.607Z,27.63
2018-05-13T08:58:47.536Z,27.60
2018-05-13T08:59:47.566Z,27.65
2018-05-13T09:01:40.516Z,27.77
2018-05-13T09:02:40.543Z,27.72
2018-05-13T09:04:33.449Z,27.93
2018-05-13T09:05:33.477Z,27.99
2018-05-13T09:07:26.430Z,27.90
2018-05-13T09:08:26.497Z,28.00
2018-05-13T09:10:19.382Z,27.94
2018-05-13T09:11:19.401Z,27.57
2018-05-13T09:13:12.316Z,27.39
2018-05-13T09:14:12.429Z,27.13
2018-05-13T09:16:05.289Z,27.09
2018-05-13T09:17:05.296Z,27.10
2018-05-13T09:18:58.224Z,27.28
2018-05-13T09:19:58.267Z,27.36
2018-05-13T09:21:51.195Z,27.51
2018-05-13T09:22:51.203Z,27.67
2018-05-13T09:24:44.134Z,27.63
2018-05-13T09:25:44.158Z,27.66
2018-05-13T09:27:37.109Z,27.63
2018-05-13T09:28:37.113Z,27.69
2018-05-13T09:30:30.066Z,27.81
2018-05-13T09:31:30.090Z,27.93
2018-05-13T09:33:23.031Z,27.92
2018-05-13T09:34:23.045Z,28.04
2018-05-13T09:36:16.000Z,27.99
2018-05-13T09:37:15.997Z,27.87
2018-05-13T09:39:08.931Z,27.78
2018-05-13T09:40:08.953Z,27.75
2018-05-13T09:42:01.897Z,27.49
2018-05-13T09:43:01.906Z,27.44
2018-05-13T09:44:54.831Z,27.41
2018-05-13T09:45:54.977Z,27.39
2018-05-13T09:47:47.806Z,27.32
2018-05-13T09:48:47.817Z,27.27
2018-05-13T09:50:40.770Z,27.24
2018-05-13T09:51:40.772Z,27.03
2018-05-13T09:53:33.697Z,26.97
2018-05-13T09:54:33.728Z,26.95
2018-05-13T09:56:26.672Z,26.91
2018-05-13T09:57:26.700Z,26.94
2018-05-13T09:59:19.610Z,27.00
2018-05-13T10:00:19.639Z,27.14
2018-05-13T10:02:12.600Z,27.22
2018-05-13T10:03:12.590Z,27.28
2018-05-13T10:05:05.515Z,27.49
2018-05-13T10:06:05.544Z,27.55
2018-05-13T10:07:58.541Z,27.70
2018-05-13T10:08:58.532Z,27.96
2018-05-13T10:10:51.483Z,28.04
2018-05-13T10:11:51.486Z,28.07
2018-05-13T10:13:44.457Z,28.18
2018-05-13T10:14:44.506Z,27.94
2018-05-13T10:16:37.410Z,27.96
2018-05-13T10:17:37.432Z,27.90
2018-05-13T10:19:30.456Z,27.85
2018-05-13T10:20:30.417Z,27.93
2018-05-13T10:22:23.322Z,27.87
2018-05-13T10:23:23.334Z,27.92
2018-05-13T10:25:16.260Z,27.94
2018-05-13T10:26:16.287Z,27.96
2018-05-13T10:28:09.245Z,27.81
2018-05-13T10:29:09.238Z,27.85
2018-05-13T10:31:02.184Z,27.77
2018-05-13T10:32:02.195Z,27.82
2018-05-13T10:33:55.131Z,28.00
2018-05-13T10:34:55.148Z,27.96
2018-05-13T10:36:48.093Z,28.27
2018-05-13T10:37:48.102Z,28.22
2018-05-13T10:39:41.037Z,28.40
2018-05-13T10:40:41.070Z,28.52
2018-05-13T10:42:34.125Z,28.61
2018-05-13T10:43:34.034Z,28.64
2018-05-13T10:45:26.956Z,28.89
2018-05-13T10:46:26.994Z,28.88
2018-05-13T10:48:19.938Z,29.05
2018-05-13T10:49:19.952Z,28.86
2018-05-13T10:51:13.894Z,28.70
2018-05-13T10:52:13.901Z,28.77
2018-05-13T10:54:06.828Z,28.80
2018-05-13T10:55:06.858Z,29.00
2018-05-13T10:56:59.813Z,28.95
2018-05-13T10:57:59.819Z,28.93
2018-05-13T10:59:52.748Z,29.08
2018-05-13T11:00:52.778Z,29.11
2018-05-13T11:02:45.731Z,29.28
2018-05-13T11:03:45.770Z,29.26
2018-05-13T11:05:38.664Z,29.14
2018-05-13T11:06:38.694Z,28.93
2018-05-13T11:08:31.644Z,28.73
2018-05-13T11:09:31.654Z,28.73
2018-05-13T11:11:24.635Z,28.58
2018-05-13T11:12:24.615Z,28.33
2018-05-13T11:14:17.538Z,28.14
2018-05-13T11:15:17.568Z,28.22
2018-05-13T11:17:10.521Z,28.33
2018-05-13T11:18:10.530Z,28.41
2018-05-13T11:20:03.454Z,28.31
2018-05-13T11:21:03.484Z,28.31
2018-05-13T11:22:56.445Z,28.34
2018-05-13T11:23:56.439Z,28.29
2018-05-13T11:25:49.373Z,28.18
2018-05-13T11:26:49.410Z,28.14
2018-05-13T11:28:42.351Z,28.11
2018-05-13T11:29:42.354Z,28.06
2018-05-13T11:31:35.302Z,28.02
2018-05-13T11:32:35.330Z,28.04
2018-05-13T11:34:28.234Z,27.84
2018-05-13T11:35:28.270Z,27.75
2018-05-13T11:37:21.416Z,27.09
2018-05-13T11:38:21.435Z,26.94
2018-05-13T11:40:14.369Z,26.55
2018-05-13T11:41:14.388Z,26.32
2018-05-13T11:43:07.339Z,26.10
2018-05-13T11:44:07.344Z,26.01
2018-05-13T11:46:00.266Z,25.91
2018-05-13T11:47:00.295Z,25.77
2018-05-13T11:48:53.234Z,25.58
2018-05-13T11:49:53.242Z,25.52
2018-05-13T11:51:46.183Z,25.35
2018-05-13T11:52:46.202Z,25.28
2018-05-13T11:54:39.113Z,25.25
2018-05-13T11:55:39.140Z,25.36
2018-05-13T11:57:32.084Z,25.28
2018-05-13T11:58:32.089Z,25.33
2018-05-13T12:00:25.010Z,25.36
2018-05-13T12:01:25.041Z,25.30
2018-05-13T12:03:17.977Z,25.38
2018-05-13T12:04:17.988Z,25.38
2018-05-13T12:06:10.912Z,25.36
2018-05-13T12:07:10.940Z,25.28
2018-05-13T12:09:03.874Z,25.36
2018-05-13T12:10:03.891Z,25.46
2018-05-13T12:11:56.826Z,25.55
2018-05-13T12:12:56.833Z,25.65
2018-05-13T12:14:49.755Z,25.47
2018-05-13T12:15:49.795Z,25.57
2018-05-13T12:17:42.733Z,25.42
2018-05-13T12:18:42.736Z,25.39
2018-05-13T12:20:35.659Z,25.60
2018-05-13T12:21:35.708Z,25.61
2018-05-13T12:23:28.633Z,25.54
2018-05-13T12:24:28.640Z,25.55
2018-05-13T12:26:21.562Z,25.61
2018-05-13T12:27:21.591Z,25.61
2018-05-13T12:29:14.534Z,25.82
2018-05-13T12:30:14.543Z,25.94
2018-05-13T12:32:07.488Z,26.35
2018-05-13T12:33:07.495Z,26.40
2018-05-13T12:35:00.421Z,26.39
2018-05-13T12:36:00.452Z,26.37
2018-05-13T12:37:53.396Z,26.48
2018-05-13T12:38:53.411Z,26.47
2018-05-13T12:40:46.328Z,26.20
2018-05-13T12:41:46.361Z,26.20
2018-05-13T12:43:39.310Z,26.06
2018-05-13T12:44:39.318Z,26.13
2018-05-13T12:46:32.246Z,25.85
2018-05-13T12:47:32.267Z,25.70
2018-05-13T12:49:25.220Z,25.42
2018-05-13T12:50:25.221Z,25.14
2018-05-13T12:52:18.174Z,24.78
2018-05-13T12:53:18.182Z,24.46
2018-05-13T12:55:11.104Z,23.83
2018-05-13T12:56:11.163Z,23.63
2018-05-13T12:58:04.083Z,23.60
2018-05-13T12:59:04.090Z,23.40
2018-05-13T13:00:57.017Z,23.54
2018-05-13T13:01:57.041Z,23.48
2018-05-13T13:03:49.994Z,23.48
2018-05-13T13:04:49.994Z,23.57
2018-05-13T13:06:42.919Z,23.68
2018-05-13T13:07:42.977Z,23.93
2018-05-13T13:09:35.896Z,24.05
2018-05-13T13:10:35.900Z,24.02
2018-05-13T13:12:28.856Z,23.76
2018-05-13T13:13:28.854Z,23.72
2018-05-13T13:15:21.783Z,23.48
2018-05-13T13:16:21.805Z,23.55
2018-05-13T13:18:14.751Z,23.38
2018-05-13T13:19:14.757Z,23.25
2018-05-13T13:21:07.682Z,22.94
2018-05-13T13:22:07.742Z,22.90
2018-05-13T13:24:00.661Z,22.67
2018-05-13T13:25:00.664Z,22.51
2018-05-13T13:26:53.583Z,22.33
2018-05-13T13:27:53.613Z,22.33
2018-05-13T13:29:46.558Z,22.25
2018-05-13T13:30:46.638Z,22.27
2018-05-13T13:32:39.520Z,22.25
2018-05-13T13:33:39.512Z,22.14
2018-05-13T13:35:32.438Z,21.88
2018-05-13T13:36:32.547Z,21.83
2018-05-13T13:38:25.410Z,21.80
2018-05-13T13:39:25.411Z,21.84
2018-05-13T13:41:18.331Z,21.82
2018-05-13T13:42:18.419Z,21.75
2018-05-13T13:44:11.303Z,21.75
2018-05-13T13:45:11.304Z,21.86
2018-05-13T13:47:04.224Z,21.82
2018-05-13T13:48:04.253Z,21.79
2018-05-13T13:49:57.201Z,21.69
2018-05-13T13:50:57.201Z,21.67
2018-05-13T13:52:50.144Z,21.71
2018-05-13T13:53:50.145Z,21.62
2018-05-13T13:55:43.063Z,21.43
2018-05-13T13:56:43.090Z,21.37
2018-05-13T13:58:36.035Z,21.42
2018-05-13T13:59:36.059Z,21.31
2018-05-13T14:01:28.954Z,21.21
2018-05-13T14:02:28.982Z,20.87
2018-05-13T14:04:21.921Z,20.54
2018-05-13T14:05:21.927Z,20.36
2018-05-13T14:07:14.873Z,19.98
2018-05-13T14:08:14.906Z,19.80
2018-05-13T14:10:07.837Z,19.47
2018-05-13T14:11:07.846Z,19.22
2018-05-13T14:13:00.783Z,19.02
2018-05-13T14:14:00.790Z,18.81
2018-05-13T14:15:54.203Z,18.51
2018-05-13T14:16:54.228Z,18.36
2018-05-13T14:18:47.163Z,18.33
2018-05-13T14:19:47.173Z,18.41
2018-05-13T14:21:40.172Z,18.50
2018-05-13T14:22:40.196Z,18.45
2018-05-13T14:24:33.233Z,18.52
2018-05-13T14:25:33.239Z,18.57
2018-05-13T14:27:26.165Z,18.80
2018-05-13T14:28:26.229Z,18.78
2018-05-13T14:30:19.137Z,18.87
2018-05-13T14:31:19.146Z,18.99
2018-05-13T14:33:12.649Z,18.98
2018-05-13T14:34:12.614Z,19.10
2018-05-13T14:36:06.051Z,19.18
2018-05-13T14:37:06.089Z,19.19
2018-05-13T14:38:59.030Z,19.23
2018-05-13T14:39:59.034Z,18.82
2018-05-13T14:41:52.064Z,18.76
2018-05-13T14:42:52.088Z,18.76
2018-05-13T14:44:45.036Z,18.85
2018-05-13T14:45:45.044Z,18.70
2018-05-13T14:47:39.613Z,18.65
2018-05-13T14:48:39.537Z,18.62
2018-05-13T14:50:32.481Z,18.48
2018-05-13T14:51:32.484Z,18.50
2018-05-13T14:53:25.433Z,18.32
2018-05-13T14:54:25.440Z,18.21
2018-05-13T14:56:18.379Z,18.02
2018-05-13T14:57:18.398Z,18.11
2018-05-13T14:59:11.598Z,17.84
2018-05-13T15:00:11.463Z,17.78
2018-05-13T15:02:04.379Z,17.75
2018-05-13T15:03:04.454Z,17.72
2018-05-13T15:04:58.014Z,17.70
2018-05-13T15:05:57.920Z,17.66
2018-05-13T15:07:50.899Z,17.68
2018-05-13T15:08:50.923Z,17.70
2018-05-13T15:10:43.981Z,17.77
2018-05-13T15:11:43.986Z,17.75
2018-05-13T15:13:36.929Z,17.62
2018-05-13T15:14:36.936Z,17.68
2018-05-13T15:16:29.864Z,17.70
2018-05-13T15:17:29.886Z,17.63
2018-05-13T15:19:23.347Z,17.54
2018-05-13T15:20:23.351Z,17.56
2018-05-13T15:22:16.793Z,17.52
2018-05-13T15:23:16.819Z,17.48
2018-05-13T15:25:09.765Z,17.43
2018-05-13T15:26:09.778Z,17.34
2018-05-13T15:28:02.707Z,17.31
2018-05-13T15:29:02.747Z,17.28
2018-05-13T15:30:55.672Z,17.34
2018-05-13T15:31:55.680Z,17.37
2018-05-13T15:33:48.634Z,17.38
2018-05-13T15:34:48.639Z,17.48
2018-05-13T15:36:41.568Z,17.49
2018-05-13T15:37:41.592Z,17.41
2018-05-13T15:39:34.556Z,17.66
2018-05-13T15:40:34.544Z,17.78
2018-05-13T15:42:27.521Z,17.77
2018-05-13T15:43:27.537Z,17.78
2018-05-13T15:45:20.553Z,17.86
2018-05-13T15:46:20.557Z,17.81
2018-05-13T15:48:13.996Z,17.77
2018-05-13T15:49:14.021Z,17.81
2018-05-13T15:51:06.978Z,17.86
2018-05-13T15:52:06.978Z,17.79
2018-05-13T15:53:59.922Z,17.81
2018-05-13T15:54:59.980Z,17.77
2018-05-13T15:56:52.870Z,17.84
2018-05-13T15:57:52.882Z,17.77
2018-05-13T15:59:45.836Z,17.93
2018-05-13T16:00:45.837Z,17.99
2018-05-13T16:02:38.767Z,17.87
2018-05-13T16:03:38.787Z,17.99
2018-05-13T16:05:32.257Z,17.92
2018-05-13T16:06:32.257Z,18.07
2018-05-13T16:08:25.187Z,18.00
2018-05-13T16:09:25.215Z,17.99
2018-05-13T16:11:18.156Z,18.00
2018-05-13T16:12:18.238Z,18.12
2018-05-13T16:14:11.128Z,18.02
2018-05-13T16:15:11.121Z,18.03
2018-05-13T16:17:04.046Z,17.93
2018-05-13T16:18:04.068Z,17.72
2018-05-13T16:19:58.553Z,17.74
2018-05-13T16:20:58.560Z,17.64
2018-05-13T16:22:51.489Z,17.59
2018-05-13T16:23:51.513Z,17.62
2018-05-13T16:25:44.469Z,17.66
2018-05-13T16:26:44.471Z,17.66
2018-05-13T16:28:37.395Z,17.52
2018-05-13T16:29:37.438Z,17.62
2018-05-13T16:31:30.371Z,17.78
2018-05-13T16:32:30.377Z,17.74
2018-05-13T16:34:23.329Z,17.86
2018-05-13T16:35:23.333Z,17.81
2018-05-13T16:37:16.361Z,17.95
2018-05-13T16:38:16.387Z,17.93
2018-05-13T16:40:10.869Z,17.95
2018-05-13T16:41:10.877Z,18.02
2018-05-13T16:43:04.315Z,18.05
2018-05-13T16:44:04.342Z,18.02
2018-05-13T16:45:57.291Z,18.26
2018-05-13T16:46:57.297Z,18.20
2018-05-13T16:48:50.225Z,17.99
2018-05-13T16:49:50.256Z,17.97
2018-05-13T16:51:43.198Z,17.95
2018-05-13T16:52:43.205Z,17.96
2018-05-13T16:54:36.155Z,18.05
2018-05-13T16:55:36.158Z,18.02
2018-05-13T16:57:29.084Z,18.00
2018-05-13T16:58:29.182Z,17.99
2018-05-13T17:00:22.097Z,18.03
2018-05-13T17:01:22.103Z,18.08
2018-05-13T17:03:15.092Z,17.99
2018-05-13T17:04:15.119Z,18.05
2018-05-13T17:06:08.066Z,18.07
2018-05-13T17:07:08.074Z,18.03
2018-05-13T17:09:01.000Z,18.07
2018-05-13T17:10:01.030Z,18.00
2018-05-13T17:11:54.134Z,18.05
2018-05-13T17:12:54.140Z,18.07
2018-05-13T17:14:47.133Z,18.12
2018-05-13T17:15:47.203Z,18.12
2018-05-13T17:17:41.644Z,18.15
2018-05-13T17:18:41.667Z,18.08
2018-05-13T17:20:35.190Z,18.02
2018-05-13T17:21:35.205Z,18.12
2018-05-13T17:23:28.149Z,18.23
2018-05-13T17:24:28.150Z,18.29
2018-05-13T17:26:21.101Z,18.29
2018-05-13T17:27:21.107Z,18.25
2018-05-13T17:29:14.032Z,18.25
2018-05-13T17:30:14.057Z,18.23
2018-05-13T17:32:07.517Z,18.29
2018-05-13T17:33:07.523Z,18.26
2018-05-13T17:35:00.473Z,18.32
2018-05-13T17:36:00.531Z,18.32
2018-05-13T17:37:53.406Z,18.32
2018-05-13T17:38:53.432Z,18.35
2018-05-13T17:40:46.381Z,18.44
2018-05-13T17:41:46.384Z,18.48
2018-05-13T17:43:39.315Z,18.54
2018-05-13T17:44:39.341Z,18.45
2018-05-13T17:46:32.288Z,18.48
2018-05-13T17:47:32.296Z,18.51
2018-05-13T17:49:25.224Z,18.51
2018-05-13T17:50:25.247Z,18.55
2018-05-13T17:52:18.199Z,18.45
2018-05-13T17:53:18.214Z,18.48
2018-05-13T17:55:11.148Z,18.48
2018-05-13T17:56:11.156Z,18.44
2018-05-13T17:58:04.083Z,18.41
2018-05-13T17:59:04.109Z,18.35
2018-05-13T18:00:58.619Z,18.36
2018-05-13T18:01:58.605Z,18.36
2018-05-13T18:03:51.528Z,18.30
2018-05-13T18:04:51.561Z,18.32
2018-05-13T18:06:44.575Z,18.32
2018-05-13T18:07:44.512Z,18.29
2018-05-13T18:09:37.436Z,18.27
2018-05-13T18:10:37.462Z,18.39
2018-05-13T18:12:30.408Z,18.37
2018-05-13T18:13:30.415Z,18.37
2018-05-13T18:15:23.873Z,18.44
2018-05-13T18:16:23.881Z,18.44
2018-05-13T18:18:16.808Z,18.50
2018-05-13T18:19:16.838Z,18.47
2018-05-13T18:21:10.295Z,18.42
2018-05-13T18:22:10.305Z,18.42
2018-05-13T18:24:03.247Z,18.32
2018-05-13T18:25:03.259Z,18.30
2018-05-13T18:26:56.202Z,18.30
2018-05-13T18:27:56.282Z,18.20
2018-05-13T18:29:49.147Z,18.23
2018-05-13T18:30:49.161Z,18.26
2018-05-13T18:32:42.112Z,18.18
2018-05-13T18:33:42.118Z,18.15